sensor_id;sensor_type;location;lat;lon;timestamp;P1;durP1;ratioP1;P2;durP2;ratioP2
78824;SDS011;68176;45.554;10.220;2023-05-10T00:01:20;2.65;;;2.10;;
78824;SDS011;68176;45.554;10.220;2023-05-10T00:03:50;5.57;;;1.98;;
78824;SDS011;68176;45.554;10.220;2023-05-10T00:06:20;3.90;;;2.25;;
78824;SDS011;68176;45.554;10.220;2023-05-10T00:08:53;2.67;;;1.70;;
78824;SDS011;68176;45.554;10.220;2023-05-10T00:11:20;2.65;;;1.77;;
78824;SDS011;68176;45.554;10.220;2023-05-10T00:13:50;2.67;;;1.92;;
78824;SDS011;68176;45.554;10.220;2023-05-10T00:16:20;2.38;;;1.63;;
78824;SDS011;68176;45.554;10.220;2023-05-10T00:18:51;2.88;;;2.10;;
78824;SDS011;68176;45.554;10.220;2023-05-10T00:23:50;2.38;;;1.98;;
78824;SDS011;68176;45.554;10.220;2023-05-10T00:26:32;2.70;;;1.65;;
78824;SDS011;68176;45.554;10.220;2023-05-10T00:29:07;3.10;;;1.40;;
78824;SDS011;68176;45.554;10.220;2023-05-10T00:31:35;2.20;;;1.70;;
78824;SDS011;68176;45.554;10.220;2023-05-10T00:34:05;2.42;;;1.42;;
78824;SDS011;68176;45.554;10.220;2023-05-10T00:36:31;1.70;;;0.90;;
78824;SDS011;68176;45.554;10.220;2023-05-10T00:41:32;2.45;;;1.85;;
78824;SDS011;68176;45.554;10.220;2023-05-10T00:44:00;2.13;;;1.20;;
78824;SDS011;68176;45.554;10.220;2023-05-10T00:46:34;2.30;;;1.65;;
78824;SDS011;68176;45.554;10.220;2023-05-10T00:49:01;1.60;;;0.80;;
78824;SDS011;68176;45.554;10.220;2023-05-10T00:51:30;2.25;;;1.67;;
78824;SDS011;68176;45.554;10.220;2023-05-10T00:54:00;2.38;;;1.80;;
78824;SDS011;68176;45.554;10.220;2023-05-10T00:56:30;2.53;;;1.70;;
78824;SDS011;68176;45.554;10.220;2023-05-10T00:59:02;2.50;;;1.60;;
78824;SDS011;68176;45.554;10.220;2023-05-10T01:01:29;2.17;;;1.38;;
78824;SDS011;68176;45.554;10.220;2023-05-10T01:03:59;2.33;;;1.60;;
78824;SDS011;68176;45.554;10.220;2023-05-10T01:06:36;2.75;;;1.70;;
78824;SDS011;68176;45.554;10.220;2023-05-10T01:09:22;2.88;;;1.67;;
78824;SDS011;68176;45.554;10.220;2023-05-10T01:11:47;1.40;;;0.50;;
78824;SDS011;68176;45.554;10.220;2023-05-10T01:14:18;1.92;;;1.15;;
78824;SDS011;68176;45.554;10.220;2023-05-10T01:16:46;2.08;;;1.42;;
78824;SDS011;68176;45.554;10.220;2023-05-10T01:19:23;2.75;;;1.90;;
78824;SDS011;68176;45.554;10.220;2023-05-10T01:30:36;2.03;;;1.40;;
78824;SDS011;68176;45.554;10.220;2023-05-10T01:38:17;1.90;;;1.60;;
78824;SDS011;68176;45.554;10.220;2023-05-10T01:41:07;2.00;;;1.27;;
78824;SDS011;68176;45.554;10.220;2023-05-10T01:43:43;3.00;;;1.73;;
78824;SDS011;68176;45.554;10.220;2023-05-10T01:46:43;2.35;;;1.83;;
78824;SDS011;68176;45.554;10.220;2023-05-10T01:49:09;2.33;;;1.52;;
78824;SDS011;68176;45.554;10.220;2023-05-10T01:51:43;1.80;;;1.08;;
78824;SDS011;68176;45.554;10.220;2023-05-10T01:54:17;2.50;;;2.03;;
78824;SDS011;68176;45.554;10.220;2023-05-10T01:56:47;2.00;;;1.33;;
78824;SDS011;68176;45.554;10.220;2023-05-10T01:59:20;2.60;;;2.03;;
78824;SDS011;68176;45.554;10.220;2023-05-10T02:01:47;1.85;;;0.75;;
78824;SDS011;68176;45.554;10.220;2023-05-10T02:04:15;3.45;;;2.00;;
78824;SDS011;68176;45.554;10.220;2023-05-10T02:06:44;2.25;;;1.25;;
78824;SDS011;68176;45.554;10.220;2023-05-10T02:09:14;2.28;;;1.58;;
78824;SDS011;68176;45.554;10.220;2023-05-10T02:11:44;2.05;;;1.25;;
78824;SDS011;68176;45.554;10.220;2023-05-10T02:14:20;2.92;;;1.92;;
78824;SDS011;68176;45.554;10.220;2023-05-10T02:16:52;2.90;;;2.00;;
78824;SDS011;68176;45.554;10.220;2023-05-10T02:19:20;2.57;;;1.53;;
78824;SDS011;68176;45.554;10.220;2023-05-10T02:21:50;2.45;;;1.75;;
78824;SDS011;68176;45.554;10.220;2023-05-10T02:24:19;1.45;;;0.85;;
78824;SDS011;68176;45.554;10.220;2023-05-10T02:26:46;1.80;;;0.90;;
78824;SDS011;68176;45.554;10.220;2023-05-10T02:29:17;2.25;;;1.42;;
78824;SDS011;68176;45.554;10.220;2023-05-10T02:31:51;1.80;;;1.08;;
78824;SDS011;68176;45.554;10.220;2023-05-10T02:34:24;1.93;;;0.97;;
78824;SDS011;68176;45.554;10.220;2023-05-10T02:36:56;3.20;;;1.52;;
78824;SDS011;68176;45.554;10.220;2023-05-10T02:39:26;1.65;;;0.65;;
78824;SDS011;68176;45.554;10.220;2023-05-10T02:41:56;1.90;;;1.23;;
78824;SDS011;68176;45.554;10.220;2023-05-10T02:44:41;3.20;;;0.75;;
78824;SDS011;68176;45.554;10.220;2023-05-10T02:47:08;1.77;;;1.35;;
78824;SDS011;68176;45.554;10.220;2023-05-10T02:49:52;2.25;;;1.30;;
78824;SDS011;68176;45.554;10.220;2023-05-10T02:52:23;2.20;;;1.37;;
78824;SDS011;68176;45.554;10.220;2023-05-10T02:55:03;2.22;;;1.55;;
78824;SDS011;68176;45.554;10.220;2023-05-10T03:00:40;3.65;;;2.03;;
78824;SDS011;68176;45.554;10.220;2023-05-10T03:06:22;2.35;;;1.48;;
78824;SDS011;68176;45.554;10.220;2023-05-10T03:08:53;1.75;;;1.08;;
78824;SDS011;68176;45.554;10.220;2023-05-10T03:14:57;2.05;;;1.73;;
78824;SDS011;68176;45.554;10.220;2023-05-10T03:17:45;1.80;;;1.20;;
78824;SDS011;68176;45.554;10.220;2023-05-10T03:20:16;2.77;;;2.00;;
78824;SDS011;68176;45.554;10.220;2023-05-10T03:26:49;2.23;;;1.00;;
78824;SDS011;68176;45.554;10.220;2023-05-10T03:29:35;2.40;;;1.70;;
78824;SDS011;68176;45.554;10.220;2023-05-10T03:32:38;2.30;;;1.58;;
78824;SDS011;68176;45.554;10.220;2023-05-10T03:35:33;3.10;;;1.73;;
78824;SDS011;68176;45.554;10.220;2023-05-10T03:38:22;2.30;;;1.80;;
78824;SDS011;68176;45.554;10.220;2023-05-10T03:41:18;2.08;;;1.25;;
78824;SDS011;68176;45.554;10.220;2023-05-10T03:44:25;1.95;;;1.63;;
78824;SDS011;68176;45.554;10.220;2023-05-10T03:50:21;1.65;;;0.82;;
78824;SDS011;68176;45.554;10.220;2023-05-10T03:53:11;1.75;;;1.02;;
78824;SDS011;68176;45.554;10.220;2023-05-10T04:05:23;1.53;;;0.57;;
78824;SDS011;68176;45.554;10.220;2023-05-10T04:07:59;1.70;;;1.20;;
78824;SDS011;68176;45.554;10.220;2023-05-10T04:10:35;2.00;;;1.40;;
78824;SDS011;68176;45.554;10.220;2023-05-10T04:13:07;2.55;;;1.55;;
78824;SDS011;68176;45.554;10.220;2023-05-10T04:15:40;1.80;;;1.00;;
78824;SDS011;68176;45.554;10.220;2023-05-10T04:18:49;1.97;;;1.23;;
78824;SDS011;68176;45.554;10.220;2023-05-10T04:28:50;1.23;;;0.90;;
78824;SDS011;68176;45.554;10.220;2023-05-10T04:45:12;2.13;;;1.35;;
78824;SDS011;68176;45.554;10.220;2023-05-10T04:48:18;1.77;;;1.10;;
78824;SDS011;68176;45.554;10.220;2023-05-10T04:54:03;1.80;;;1.05;;
78824;SDS011;68176;45.554;10.220;2023-05-10T04:57:15;1.63;;;0.95;;
78824;SDS011;68176;45.554;10.220;2023-05-10T05:02:59;1.90;;;1.13;;
78824;SDS011;68176;45.554;10.220;2023-05-10T05:11:14;2.40;;;1.50;;
78824;SDS011;68176;45.554;10.220;2023-05-10T07:21:12;2.50;;;1.50;;
78824;SDS011;68176;45.554;10.220;2023-05-10T07:23:49;2.10;;;1.30;;
78824;SDS011;68176;45.554;10.220;2023-05-10T07:26:26;3.00;;;1.20;;
78824;SDS011;68176;45.554;10.220;2023-05-10T07:28:54;2.78;;;1.30;;
78824;SDS011;68176;45.554;10.220;2023-05-10T07:31:28;2.90;;;1.25;;
78824;SDS011;68176;45.554;10.220;2023-05-10T07:53:48;4.55;;;2.30;;
78824;SDS011;68176;45.554;10.220;2023-05-10T08:06:12;2.67;;;1.30;;
78824;SDS011;68176;45.554;10.220;2023-05-10T08:08:41;3.90;;;2.10;;
78824;SDS011;68176;45.554;10.220;2023-05-10T08:20:55;2.92;;;1.98;;
78824;SDS011;68176;45.554;10.220;2023-05-10T08:33:37;2.80;;;1.80;;
78824;SDS011;68176;45.554;10.220;2023-05-10T08:42:39;2.70;;;1.93;;
78824;SDS011;68176;45.554;10.220;2023-05-10T08:55:25;2.70;;;1.55;;
78824;SDS011;68176;45.554;10.220;2023-05-10T09:00:58;1.83;;;1.23;;
78824;SDS011;68176;45.554;10.220;2023-05-10T09:06:29;3.15;;;1.52;;
78824;SDS011;68176;45.554;10.220;2023-05-10T09:18:52;2.45;;;1.65;;
78824;SDS011;68176;45.554;10.220;2023-05-10T09:25:13;2.63;;;1.57;;
78824;SDS011;68176;45.554;10.220;2023-05-10T09:27:45;2.67;;;1.53;;
78824;SDS011;68176;45.554;10.220;2023-05-10T09:30:23;3.72;;;1.67;;
78824;SDS011;68176;45.554;10.220;2023-05-10T09:39:02;3.22;;;1.35;;
78824;SDS011;68176;45.554;10.220;2023-05-10T09:44:33;3.22;;;2.42;;
78824;SDS011;68176;45.554;10.220;2023-05-10T09:47:00;5.90;;;3.10;;
78824;SDS011;68176;45.554;10.220;2023-05-10T09:49:27;3.20;;;2.90;;
78824;SDS011;68176;45.554;10.220;2023-05-10T09:52:04;4.25;;;3.47;;
78824;SDS011;68176;45.554;10.220;2023-05-10T09:54:31;3.40;;;2.80;;
78824;SDS011;68176;45.554;10.220;2023-05-10T09:56:57;3.25;;;2.55;;
78824;SDS011;68176;45.554;10.220;2023-05-10T09:59:27;3.78;;;3.45;;
78824;SDS011;68176;45.554;10.220;2023-05-10T10:01:57;5.85;;;4.45;;
78824;SDS011;68176;45.554;10.220;2023-05-10T10:04:28;8.35;;;4.30;;
78824;SDS011;68176;45.554;10.220;2023-05-10T10:09:27;3.95;;;3.60;;
78824;SDS011;68176;45.554;10.220;2023-05-10T10:11:57;5.28;;;4.78;;
78824;SDS011;68176;45.554;10.220;2023-05-10T10:14:28;5.90;;;4.18;;
78824;SDS011;68176;45.554;10.220;2023-05-10T10:16:57;6.90;;;6.18;;
78824;SDS011;68176;45.554;10.220;2023-05-10T10:19:27;5.43;;;4.80;;
78824;SDS011;68176;45.554;10.220;2023-05-10T10:21:57;7.80;;;5.05;;
78824;SDS011;68176;45.554;10.220;2023-05-10T10:24:27;8.02;;;6.18;;
78824;SDS011;68176;45.554;10.220;2023-05-10T10:27:00;6.25;;;5.25;;
78824;SDS011;68176;45.554;10.220;2023-05-10T10:29:43;5.75;;;4.78;;
78824;SDS011;68176;45.554;10.220;2023-05-10T10:35:16;5.47;;;4.70;;
78824;SDS011;68176;45.554;10.220;2023-05-10T10:37:45;3.40;;;3.10;;
78824;SDS011;68176;45.554;10.220;2023-05-10T10:40:31;7.00;;;5.20;;
78824;SDS011;68176;45.554;10.220;2023-05-10T10:43:20;5.10;;;4.10;;
78824;SDS011;68176;45.554;10.220;2023-05-10T10:48:39;5.63;;;4.65;;
78824;SDS011;68176;45.554;10.220;2023-05-10T10:51:28;6.45;;;5.18;;
78824;SDS011;68176;45.554;10.220;2023-05-10T10:53:54;3.70;;;3.35;;
78824;SDS011;68176;45.554;10.220;2023-05-10T10:56:21;7.43;;;6.60;;
78824;SDS011;68176;45.554;10.220;2023-05-10T10:58:51;8.98;;;5.88;;
78824;SDS011;68176;45.554;10.220;2023-05-10T11:01:21;7.93;;;5.78;;
78824;SDS011;68176;45.554;10.220;2023-05-10T11:03:54;9.43;;;7.65;;
78824;SDS011;68176;45.554;10.220;2023-05-10T11:06:42;6.45;;;5.57;;
78824;SDS011;68176;45.554;10.220;2023-05-10T11:09:08;4.90;;;3.20;;
78824;SDS011;68176;45.554;10.220;2023-05-10T11:11:36;7.45;;;6.40;;
78824;SDS011;68176;45.554;10.220;2023-05-10T11:14:13;7.30;;;6.30;;
78824;SDS011;68176;45.554;10.220;2023-05-10T11:16:42;6.90;;;4.90;;
78824;SDS011;68176;45.554;10.220;2023-05-10T11:19:16;9.40;;;7.20;;
78824;SDS011;68176;45.554;10.220;2023-05-10T11:21:48;15.05;;;10.50;;
78824;SDS011;68176;45.554;10.220;2023-05-10T11:24:17;14.23;;;12.57;;
78824;SDS011;68176;45.554;10.220;2023-05-10T11:26:43;13.15;;;11.10;;
78824;SDS011;68176;45.554;10.220;2023-05-10T11:29:09;14.05;;;12.15;;
78824;SDS011;68176;45.554;10.220;2023-05-10T11:31:43;19.17;;;17.17;;
78824;SDS011;68176;45.554;10.220;2023-05-10T11:34:10;16.45;;;14.20;;
78824;SDS011;68176;45.554;10.220;2023-05-10T11:36:39;13.30;;;11.63;;
78824;SDS011;68176;45.554;10.220;2023-05-10T11:39:09;17.17;;;12.38;;
78824;SDS011;68176;45.554;10.220;2023-05-10T11:41:39;11.82;;;10.60;;
78824;SDS011;68176;45.554;10.220;2023-05-10T11:44:09;10.77;;;9.68;;
78824;SDS011;68176;45.554;10.220;2023-05-10T11:46:39;9.50;;;7.68;;
78824;SDS011;68176;45.554;10.220;2023-05-10T11:49:09;8.95;;;8.02;;
78824;SDS011;68176;45.554;10.220;2023-05-10T11:51:39;8.63;;;6.93;;
78824;SDS011;68176;45.554;10.220;2023-05-10T11:54:09;11.48;;;8.80;;
78824;SDS011;68176;45.554;10.220;2023-05-10T11:56:39;8.02;;;6.25;;
78824;SDS011;68176;45.554;10.220;2023-05-10T11:59:09;6.63;;;6.03;;
78824;SDS011;68176;45.554;10.220;2023-05-10T12:04:09;7.30;;;5.10;;
78824;SDS011;68176;45.554;10.220;2023-05-10T12:06:40;5.72;;;5.20;;
78824;SDS011;68176;45.554;10.220;2023-05-10T12:09:09;5.75;;;4.95;;
78824;SDS011;68176;45.554;10.220;2023-05-10T12:11:40;5.72;;;5.18;;
78824;SDS011;68176;45.554;10.220;2023-05-10T12:14:09;7.13;;;6.32;;
78824;SDS011;68176;45.554;10.220;2023-05-10T12:16:39;7.57;;;6.80;;
78824;SDS011;68176;45.554;10.220;2023-05-10T12:19:09;7.75;;;7.00;;
78824;SDS011;68176;45.554;10.220;2023-05-10T12:21:39;6.60;;;5.82;;
78824;SDS011;68176;45.554;10.220;2023-05-10T12:24:09;6.93;;;6.20;;
78824;SDS011;68176;45.554;10.220;2023-05-10T12:26:39;9.18;;;7.55;;
78824;SDS011;68176;45.554;10.220;2023-05-10T12:29:17;7.80;;;6.80;;
78824;SDS011;68176;45.554;10.220;2023-05-10T12:32:05;7.45;;;6.70;;
78824;SDS011;68176;45.554;10.220;2023-05-10T12:34:33;8.75;;;7.82;;
78824;SDS011;68176;45.554;10.220;2023-05-10T12:37:01;7.53;;;6.68;;
78824;SDS011;68176;45.554;10.220;2023-05-10T12:39:38;5.85;;;5.20;;
78824;SDS011;68176;45.554;10.220;2023-05-10T12:42:04;7.82;;;6.88;;
78824;SDS011;68176;45.554;10.220;2023-05-10T12:44:30;3.80;;;3.10;;
78824;SDS011;68176;45.554;10.220;2023-05-10T12:46:58;8.30;;;6.75;;
78824;SDS011;68176;45.554;10.220;2023-05-10T12:49:28;8.88;;;7.07;;
78824;SDS011;68176;45.554;10.220;2023-05-10T12:51:58;6.90;;;6.20;;
78824;SDS011;68176;45.554;10.220;2023-05-10T12:54:28;8.60;;;6.93;;
78824;SDS011;68176;45.554;10.220;2023-05-10T12:56:58;8.02;;;7.28;;
78824;SDS011;68176;45.554;10.220;2023-05-10T12:59:28;7.93;;;7.13;;
78824;SDS011;68176;45.554;10.220;2023-05-10T13:04:28;8.60;;;5.47;;
78824;SDS011;68176;45.554;10.220;2023-05-10T13:06:58;6.60;;;5.93;;
78824;SDS011;68176;45.554;10.220;2023-05-10T13:09:29;6.78;;;5.43;;
78824;SDS011;68176;45.554;10.220;2023-05-10T13:11:59;7.53;;;5.72;;
78824;SDS011;68176;45.554;10.220;2023-05-10T13:14:29;6.88;;;5.85;;
78824;SDS011;68176;45.554;10.220;2023-05-10T13:16:59;6.45;;;5.40;;
78824;SDS011;68176;45.554;10.220;2023-05-10T13:19:28;6.63;;;5.93;;
78824;SDS011;68176;45.554;10.220;2023-05-10T13:21:58;9.77;;;6.10;;
78824;SDS011;68176;45.554;10.220;2023-05-10T13:24:29;7.88;;;7.10;;
78824;SDS011;68176;45.554;10.220;2023-05-10T13:29:29;7.75;;;5.82;;
78824;SDS011;68176;45.554;10.220;2023-05-10T13:31:58;6.25;;;5.65;;
78824;SDS011;68176;45.554;10.220;2023-05-10T13:34:29;6.82;;;6.22;;
78824;SDS011;68176;45.554;10.220;2023-05-10T13:36:59;8.93;;;6.95;;
78824;SDS011;68176;45.554;10.220;2023-05-10T13:39:29;7.63;;;5.80;;
78824;SDS011;68176;45.554;10.220;2023-05-10T13:41:59;7.63;;;5.63;;
78824;SDS011;68176;45.554;10.220;2023-05-10T13:44:29;6.82;;;5.45;;
78824;SDS011;68176;45.554;10.220;2023-05-10T13:46:59;6.80;;;6.15;;
78824;SDS011;68176;45.554;10.220;2023-05-10T13:49:29;8.32;;;6.43;;
78824;SDS011;68176;45.554;10.220;2023-05-10T13:51:59;6.22;;;5.30;;
78824;SDS011;68176;45.554;10.220;2023-05-10T13:54:30;4.90;;;4.10;;
78824;SDS011;68176;45.554;10.220;2023-05-10T13:56:59;5.60;;;5.10;;
78824;SDS011;68176;45.554;10.220;2023-05-10T13:59:29;7.15;;;6.10;;
78824;SDS011;68176;45.554;10.220;2023-05-10T14:01:59;7.30;;;5.82;;
78824;SDS011;68176;45.554;10.220;2023-05-10T14:04:29;7.80;;;7.03;;
78824;SDS011;68176;45.554;10.220;2023-05-10T14:06:59;7.93;;;7.10;;
78824;SDS011;68176;45.554;10.220;2023-05-10T14:09:29;8.25;;;7.43;;
78824;SDS011;68176;45.554;10.220;2023-05-10T14:11:59;7.68;;;6.97;;
78824;SDS011;68176;45.554;10.220;2023-05-10T14:14:29;9.25;;;7.30;;
78824;SDS011;68176;45.554;10.220;2023-05-10T14:16:59;9.73;;;8.82;;
78824;SDS011;68176;45.554;10.220;2023-05-10T14:19:29;9.48;;;8.52;;
78824;SDS011;68176;45.554;10.220;2023-05-10T14:21:59;13.95;;;8.68;;
78824;SDS011;68176;45.554;10.220;2023-05-10T14:24:29;13.25;;;11.90;;
78824;SDS011;68176;45.554;10.220;2023-05-10T14:26:59;10.38;;;9.38;;
78824;SDS011;68176;45.554;10.220;2023-05-10T14:29:29;10.25;;;9.25;;
78824;SDS011;68176;45.554;10.220;2023-05-10T14:31:59;11.43;;;10.35;;
78824;SDS011;68176;45.554;10.220;2023-05-10T14:36:59;9.45;;;8.45;;
78824;SDS011;68176;45.554;10.220;2023-05-10T14:39:29;12.93;;;11.75;;
78824;SDS011;68176;45.554;10.220;2023-05-10T14:41:59;10.88;;;9.75;;
78824;SDS011;68176;45.554;10.220;2023-05-10T14:44:29;12.70;;;11.32;;
78824;SDS011;68176;45.554;10.220;2023-05-10T14:46:59;11.15;;;10.15;;
78824;SDS011;68176;45.554;10.220;2023-05-10T14:49:29;12.20;;;10.80;;
78824;SDS011;68176;45.554;10.220;2023-05-10T14:51:59;9.85;;;8.88;;
78824;SDS011;68176;45.554;10.220;2023-05-10T14:54:29;11.63;;;10.10;;
78824;SDS011;68176;45.554;10.220;2023-05-10T14:56:59;10.10;;;9.07;;
78824;SDS011;68176;45.554;10.220;2023-05-10T14:59:29;10.48;;;9.45;;
78824;SDS011;68176;45.554;10.220;2023-05-10T15:01:59;9.00;;;8.10;;
78824;SDS011;68176;45.554;10.220;2023-05-10T15:04:29;13.68;;;9.73;;
78824;SDS011;68176;45.554;10.220;2023-05-10T15:06:59;10.57;;;9.57;;
78824;SDS011;68176;45.554;10.220;2023-05-10T15:09:29;12.52;;;11.23;;
78824;SDS011;68176;45.554;10.220;2023-05-10T15:11:59;11.25;;;10.15;;
78824;SDS011;68176;45.554;10.220;2023-05-10T15:14:29;12.52;;;11.32;;
78824;SDS011;68176;45.554;10.220;2023-05-10T15:16:59;13.40;;;11.95;;
78824;SDS011;68176;45.554;10.220;2023-05-10T15:19:29;13.82;;;12.52;;
78824;SDS011;68176;45.554;10.220;2023-05-10T15:21:59;13.73;;;12.35;;
78824;SDS011;68176;45.554;10.220;2023-05-10T15:24:29;15.30;;;13.82;;
78824;SDS011;68176;45.554;10.220;2023-05-10T15:26:59;12.48;;;11.25;;
78824;SDS011;68176;45.554;10.220;2023-05-10T15:29:29;10.23;;;9.23;;
78824;SDS011;68176;45.554;10.220;2023-05-10T15:31:59;11.18;;;9.55;;
78824;SDS011;68176;45.554;10.220;2023-05-10T15:34:29;11.38;;;10.20;;
78824;SDS011;68176;45.554;10.220;2023-05-10T15:36:59;11.73;;;10.52;;
78824;SDS011;68176;45.554;10.220;2023-05-10T15:39:29;14.02;;;12.57;;
78824;SDS011;68176;45.554;10.220;2023-05-10T15:41:59;12.38;;;11.13;;
78824;SDS011;68176;45.554;10.220;2023-05-10T15:44:29;8.18;;;7.45;;
78824;SDS011;68176;45.554;10.220;2023-05-10T15:46:59;8.77;;;7.93;;
78824;SDS011;68176;45.554;10.220;2023-05-10T15:49:29;8.55;;;6.57;;
78824;SDS011;68176;45.554;10.220;2023-05-10T15:51:59;7.25;;;6.40;;
78824;SDS011;68176;45.554;10.220;2023-05-10T15:56:59;7.78;;;6.93;;
78824;SDS011;68176;45.554;10.220;2023-05-10T15:59:29;8.23;;;7.35;;
78824;SDS011;68176;45.554;10.220;2023-05-10T16:01:59;8.90;;;7.07;;
78824;SDS011;68176;45.554;10.220;2023-05-10T16:04:29;7.97;;;7.18;;
78824;SDS011;68176;45.554;10.220;2023-05-10T16:06:59;8.48;;;7.60;;
78824;SDS011;68176;45.554;10.220;2023-05-10T16:09:29;9.73;;;8.48;;
78824;SDS011;68176;45.554;10.220;2023-05-10T16:52:26;3.28;;;2.50;;
78824;SDS011;68176;45.554;10.220;2023-05-10T16:54:55;2.10;;;1.30;;
78824;SDS011;68176;45.554;10.220;2023-05-10T17:03:03;2.70;;;1.30;;
78824;SDS011;68176;45.554;10.220;2023-05-10T17:05:31;3.00;;;1.90;;
78824;SDS011;68176;45.554;10.220;2023-05-10T17:07:57;3.95;;;2.63;;
78824;SDS011;68176;45.554;10.220;2023-05-10T17:10:27;2.35;;;1.48;;
78824;SDS011;68176;45.554;10.220;2023-05-10T17:12:57;2.63;;;2.17;;
78824;SDS011;68176;45.554;10.220;2023-05-10T17:15:39;2.80;;;1.77;;
78824;SDS011;68176;45.554;10.220;2023-05-10T17:18:17;2.33;;;1.85;;
78824;SDS011;68176;45.554;10.220;2023-05-10T17:24:26;2.25;;;1.48;;
78824;SDS011;68176;45.554;10.220;2023-05-10T17:26:54;2.63;;;1.63;;
78824;SDS011;68176;45.554;10.220;2023-05-10T17:29:19;1.80;;;1.00;;
78824;SDS011;68176;45.554;10.220;2023-05-10T17:31:48;2.67;;;1.92;;
78824;SDS011;68176;45.554;10.220;2023-05-10T17:34:25;3.58;;;1.70;;
78824;SDS011;68176;45.554;10.220;2023-05-10T17:36:58;2.72;;;1.70;;
78824;SDS011;68176;45.554;10.220;2023-05-10T17:39:23;1.95;;;1.00;;
78824;SDS011;68176;45.554;10.220;2023-05-10T17:41:49;2.15;;;1.30;;
78824;SDS011;68176;45.554;10.220;2023-05-10T17:44:19;2.53;;;1.38;;
78824;SDS011;68176;45.554;10.220;2023-05-10T17:46:49;2.20;;;1.42;;
78824;SDS011;68176;45.554;10.220;2023-05-10T17:49:18;2.20;;;1.25;;
78824;SDS011;68176;45.554;10.220;2023-05-10T17:51:49;2.72;;;1.52;;
78824;SDS011;68176;45.554;10.220;2023-05-10T17:54:22;2.13;;;1.33;;
78824;SDS011;68176;45.554;10.220;2023-05-10T17:56:48;3.70;;;1.30;;
78824;SDS011;68176;45.554;10.220;2023-05-10T17:59:22;2.75;;;1.77;;
78824;SDS011;68176;45.554;10.220;2023-05-10T18:01:49;2.42;;;1.52;;
78824;SDS011;68176;45.554;10.220;2023-05-10T18:10:01;2.25;;;1.35;;
78824;SDS011;68176;45.554;10.220;2023-05-10T18:12:39;1.60;;;0.90;;
78824;SDS011;68176;45.554;10.220;2023-05-10T18:15:07;2.28;;;1.30;;
78824;SDS011;68176;45.554;10.220;2023-05-10T18:17:39;2.15;;;1.58;;
78824;SDS011;68176;45.554;10.220;2023-05-10T18:20:04;1.50;;;0.80;;
78824;SDS011;68176;45.554;10.220;2023-05-10T18:22:32;2.08;;;1.60;;
78824;SDS011;68176;45.554;10.220;2023-05-10T18:25:03;1.58;;;1.00;;
78824;SDS011;68176;45.554;10.220;2023-05-10T18:27:40;2.15;;;1.45;;
78824;SDS011;68176;45.554;10.220;2023-05-10T18:30:09;2.80;;;1.50;;
78824;SDS011;68176;45.554;10.220;2023-05-10T18:32:38;1.43;;;0.77;;
78824;SDS011;68176;45.554;10.220;2023-05-10T18:35:04;1.40;;;0.65;;
78824;SDS011;68176;45.554;10.220;2023-05-10T18:37:33;2.65;;;1.25;;
78824;SDS011;68176;45.554;10.220;2023-05-10T18:40:03;3.65;;;1.95;;
78824;SDS011;68176;45.554;10.220;2023-05-10T18:42:33;2.80;;;1.13;;
78824;SDS011;68176;45.554;10.220;2023-05-10T18:45:03;1.77;;;1.23;;
78824;SDS011;68176;45.554;10.220;2023-05-10T18:47:33;2.38;;;1.60;;
78824;SDS011;68176;45.554;10.220;2023-05-10T18:50:12;2.30;;;1.35;;
78824;SDS011;68176;45.554;10.220;2023-05-10T18:52:47;2.30;;;1.27;;
78824;SDS011;68176;45.554;10.220;2023-05-10T18:55:15;2.15;;;1.80;;
78824;SDS011;68176;45.554;10.220;2023-05-10T18:57:41;1.95;;;0.80;;
78824;SDS011;68176;45.554;10.220;2023-05-10T19:00:13;4.90;;;1.10;;
78824;SDS011;68176;45.554;10.220;2023-05-10T19:02:40;1.85;;;1.10;;
78824;SDS011;68176;45.554;10.220;2023-05-10T19:05:12;2.00;;;1.27;;
78824;SDS011;68176;45.554;10.220;2023-05-10T19:07:50;1.95;;;1.23;;
78824;SDS011;68176;45.554;10.220;2023-05-10T19:10:15;2.37;;;1.43;;
78824;SDS011;68176;45.554;10.220;2023-05-10T19:12:41;2.20;;;1.20;;
78824;SDS011;68176;45.554;10.220;2023-05-10T19:15:10;2.08;;;1.15;;
78824;SDS011;68176;45.554;10.220;2023-05-10T19:17:40;3.97;;;1.30;;
78824;SDS011;68176;45.554;10.220;2023-05-10T19:20:11;2.22;;;1.05;;
78824;SDS011;68176;45.554;10.220;2023-05-10T19:22:41;2.67;;;1.45;;
78824;SDS011;68176;45.554;10.220;2023-05-10T19:25:11;3.50;;;1.13;;
78824;SDS011;68176;45.554;10.220;2023-05-10T19:27:44;2.83;;;1.58;;
78824;SDS011;68176;45.554;10.220;2023-05-10T19:30:23;2.00;;;1.17;;
78824;SDS011;68176;45.554;10.220;2023-05-10T19:32:49;2.17;;;1.53;;
78824;SDS011;68176;45.554;10.220;2023-05-10T19:35:50;1.93;;;1.07;;
78824;SDS011;68176;45.554;10.220;2023-05-10T19:38:25;2.23;;;0.83;;
78824;SDS011;68176;45.554;10.220;2023-05-10T19:56:15;2.90;;;1.87;;
78824;SDS011;68176;45.554;10.220;2023-05-10T19:58:55;1.45;;;0.85;;
78824;SDS011;68176;45.554;10.220;2023-05-10T20:01:23;2.63;;;1.05;;
78824;SDS011;68176;45.554;10.220;2023-05-10T20:03:57;2.40;;;1.30;;
78824;SDS011;68176;45.554;10.220;2023-05-10T20:28:54;2.25;;;1.05;;
78824;SDS011;68176;45.554;10.220;2023-05-10T21:09:23;1.65;;;0.98;;
78824;SDS011;68176;45.554;10.220;2023-05-10T21:22:10;2.13;;;1.05;;
78824;SDS011;68176;45.554;10.220;2023-05-10T21:24:43;1.65;;;0.95;;
78824;SDS011;68176;45.554;10.220;2023-05-10T21:30:53;1.73;;;0.75;;
78824;SDS011;68176;45.554;10.220;2023-05-10T21:51:22;1.33;;;0.90;;
78824;SDS011;68176;45.554;10.220;2023-05-10T22:57:05;1.92;;;0.80;;
78824;SDS011;68176;45.554;10.220;2023-05-10T23:12:35;1.70;;;0.73;;
78824;SDS011;68176;45.554;10.220;2023-05-10T23:18:37;1.77;;;0.63;;
78824;SDS011;68176;45.554;10.220;2023-05-10T23:28:10;1.52;;;0.73;;
78824;SDS011;68176;45.554;10.220;2023-05-10T23:36:53;1.25;;;0.50;;
